Bitahochee, Arizona
Current Conditions -  °F | °C
As of 9:56 AM on Saturday 22 Nov 2014 (Local Time) from KINW Reporting Station
Clear Clear  
Wind Chill: 37°   Ceiling: Unl
Heat Index: 40°   Visibility: 10mi
Dew Point: 19°   Wind: 5mph
Humidity: 43%   Direction: 110°ESE
Pressure: 30.16"   Gusts: NA
Location:  35.4077°N, 110.085°W
Report Text: KINW 221656Z AUTO 11004KT 10SM CLR 04/M07 A3016 RMK AO2 SLP218 T00441072
Loading
Personal Weather Stations






























Interactive Weather Map New forecast layout! Learn more

10-Day Weather Forecast

Advertisements
Track Severe Weather on mobile